Terminal Aerodrome Forecast
Issued by NWS

Home | Current Version | Previous Version | Graphics & Text | Print | Product List | Glossary On
Versions: 1 2 3 4 5 6 7 8 9 10 11 12 13 14
000
FTUS43 KPAH 221700
TAFCGI
TAF
KCGI 221720Z 2218/2318 03009KT P6SM FEW035
     FM230000 00000KT P6SM SKC
      TEMPO 2309/2312 5SM BR
     FM231400 06006KT P6SM SKC=

USA.gov is the U.S. government's official web portal to all federal, state and local government web resources and services.